sensor_id;sensor_type;location;lat;lon;timestamp;pressure;altitude;pressure_sealevel;temperature;humidity
7170;BME280;3626;42.656;23.312;2022-09-13T00:00:05;94394.31;;;13.28;93.22
7170;BME280;3626;42.656;23.312;2022-09-13T00:00:11;94393.50;;;13.27;93.55
7170;BME280;3626;42.656;23.312;2022-09-13T00:00:18;94389.13;;;13.28;93.24
7170;BME280;3626;42.656;23.312;2022-09-13T00:00:24;94389.13;;;13.28;93.15
7170;BME280;3626;42.656;23.312;2022-09-13T00:00:29;94390.72;;;13.29;93.61
7170;BME280;3626;42.656;23.312;2022-09-13T00:00:36;94394.31;;;13.28;93.48
7170;BME280;3626;42.656;23.312;2022-09-13T00:00:42;94388.13;;;13.29;93.48
7170;BME280;3626;42.656;23.312;2022-09-13T00:00:49;94393.16;;;13.30;93.06
7170;BME280;3626;42.656;23.312;2022-09-13T00:00:56;94392.34;;;13.30;93.22
7170;BME280;3626;42.656;23.312;2022-09-13T00:01:02;94387.16;;;13.30;93.35
7170;BME280;3626;42.656;23.312;2022-09-13T00:01:07;94393.94;;;13.31;93.39
7170;BME280;3626;42.656;23.312;2022-09-13T00:01:13;94393.94;;;13.31;92.92
7170;BME280;3626;42.656;23.312;2022-09-13T00:01:19;94394.75;;;13.31;93.31
7170;BME280;3626;42.656;23.312;2022-09-13T00:01:26;94393.16;;;13.30;93.28
7170;BME280;3626;42.656;23.312;2022-09-13T00:01:32;94390.34;;;13.32;93.22
7170;BME280;3626;42.656;23.312;2022-09-13T00:01:37;94391.16;;;13.32;93.24
7170;BME280;3626;42.656;23.312;2022-09-13T00:01:43;94389.56;;;13.31;92.96
7170;BME280;3626;42.656;23.312;2022-09-13T00:01:49;94392.94;;;13.32;93.07
7170;BME280;3626;42.656;23.312;2022-09-13T00:01:54;94392.16;;;13.31;93.21
7170;BME280;3626;42.656;23.312;2022-09-13T00:02:02;94393.94;;;13.31;92.88
7170;BME280;3626;42.656;23.312;2022-09-13T00:02:07;94389.75;;;13.30;92.89
7170;BME280;3626;42.656;23.312;2022-09-13T00:02:13;94394.75;;;13.31;92.93
7170;BME280;3626;42.656;23.312;2022-09-13T00:02:19;94386.97;;;13.31;93.24
7170;BME280;3626;42.656;23.312;2022-09-13T00:02:24;94396.34;;;13.32;92.86
7170;BME280;3626;42.656;23.312;2022-09-13T00:02:31;94382.38;;;13.33;93.21
7170;BME280;3626;42.656;23.312;2022-09-13T00:02:36;94391.94;;;13.33;93.12
7170;BME280;3626;42.656;23.312;2022-09-13T00:02:42;94391.94;;;13.33;92.90
7170;BME280;3626;42.656;23.312;2022-09-13T00:02:48;94391.94;;;13.33;93.27
7170;BME280;3626;42.656;23.312;2022-09-13T00:02:54;94390.34;;;13.32;93.27
7170;BME280;3626;42.656;23.312;2022-09-13T00:02:59;94391.16;;;13.32;93.26
7170;BME280;3626;42.656;23.312;2022-09-13T00:03:06;94394.75;;;13.31;93.15
7170;BME280;3626;42.656;23.312;2022-09-13T00:03:14;94398.31;;;13.30;93.28
7170;BME280;3626;42.656;23.312;2022-09-13T00:03:19;94392.16;;;13.31;93.13
7170;BME280;3626;42.656;23.312;2022-09-13T00:03:26;94384.38;;;13.31;93.21
7170;BME280;3626;42.656;23.312;2022-09-13T00:03:32;94390.16;;;13.33;93.29
7170;BME280;3626;42.656;23.312;2022-09-13T00:03:37;94396.34;;;13.32;93.01
7170;BME280;3626;42.656;23.312;2022-09-13T00:03:43;94392.16;;;13.31;92.92
7170;BME280;3626;42.656;23.312;2022-09-13T00:03:49;94388.75;;;13.31;93.15
7170;BME280;3626;42.656;23.312;2022-09-13T00:03:55;94388.56;;;13.32;93.21
7170;BME280;3626;42.656;23.312;2022-09-13T00:04:01;94393.53;;;13.34;92.97
7170;BME280;3626;42.656;23.312;2022-09-13T00:04:06;94395.34;;;13.33;92.88
7170;BME280;3626;42.656;23.312;2022-09-13T00:04:13;94392.75;;;13.33;92.97
7170;BME280;3626;42.656;23.312;2022-09-13T00:04:18;94390.16;;;13.33;92.88
7170;BME280;3626;42.656;23.312;2022-09-13T00:04:24;94392.75;;;13.33;93.15
7170;BME280;3626;42.656;23.312;2022-09-13T00:04:31;94395.34;;;13.33;93.29
7170;BME280;3626;42.656;23.312;2022-09-13T00:04:36;94383.19;;;13.34;93.25
7170;BME280;3626;42.656;23.312;2022-09-13T00:04:42;94397.94;;;13.33;92.99
7170;BME280;3626;42.656;23.312;2022-09-13T00:04:48;94396.34;;;13.32;93.06
7170;BME280;3626;42.656;23.312;2022-09-13T00:04:54;94387.75;;;13.32;93.33
7170;BME280;3626;42.656;23.312;2022-09-13T00:04:59;94388.56;;;13.32;93.28
7170;BME280;3626;42.656;23.312;2022-09-13T00:05:05;94390.94;;;13.34;93.12
7170;BME280;3626;42.656;23.312;2022-09-13T00:05:12;94386.75;;;13.33;93.09
7170;BME280;3626;42.656;23.312;2022-09-13T00:05:17;94390.94;;;13.34;93.29
7170;BME280;3626;42.656;23.312;2022-09-13T00:05:23;94393.53;;;13.34;93.18
7170;BME280;3626;42.656;23.312;2022-09-13T00:05:30;94389.19;;;13.34;93.16
7170;BME280;3626;42.656;23.312;2022-09-13T00:05:38;94390.94;;;13.34;92.94
7170;BME280;3626;42.656;23.312;2022-09-13T00:05:44;94389.19;;;13.34;93.09
7170;BME280;3626;42.656;23.312;2022-09-13T00:05:50;94387.56;;;13.33;93.07
7170;BME280;3626;42.656;23.312;2022-09-13T00:05:56;94389.19;;;13.34;93.14
7170;BME280;3626;42.656;23.312;2022-09-13T00:06:09;94392.56;;;13.35;93.06
7170;BME280;3626;42.656;23.312;2022-09-13T00:06:17;94391.78;;;13.34;93.40
7170;BME280;3626;42.656;23.312;2022-09-13T00:06:23;94393.53;;;13.34;92.89
7170;BME280;3626;42.656;23.312;2022-09-13T00:06:29;94392.75;;;13.33;93.27
7170;BME280;3626;42.656;23.312;2022-09-13T00:06:35;94389.19;;;13.34;93.40
7170;BME280;3626;42.656;23.312;2022-09-13T00:06:40;94396.75;;;13.36;93.30
7170;BME280;3626;42.656;23.312;2022-09-13T00:06:46;94379.41;;;13.36;93.02
7170;BME280;3626;42.656;23.312;2022-09-13T00:06:52;94383.81;;;13.36;93.42
7170;BME280;3626;42.656;23.312;2022-09-13T00:06:57;94392.38;;;13.36;93.40
7170;BME280;3626;42.656;23.312;2022-09-13T00:07:03;94398.34;;;13.37;93.34
7170;BME280;3626;42.656;23.312;2022-09-13T00:07:09;94393.19;;;13.37;92.98
7170;BME280;3626;42.656;23.312;2022-09-13T00:07:15;94397.56;;;13.36;93.18
7170;BME280;3626;42.656;23.312;2022-09-13T00:07:20;94388.78;;;13.37;93.18
7170;BME280;3626;42.656;23.312;2022-09-13T00:07:27;94399.00;;;13.39;93.28
7170;BME280;3626;42.656;23.312;2022-09-13T00:07:33;94387.00;;;13.38;92.98
7170;BME280;3626;42.656;23.312;2022-09-13T00:07:38;94388.78;;;13.37;92.90
7170;BME280;3626;42.656;23.312;2022-09-13T00:07:44;94386.19;;;13.37;92.73
7170;BME280;3626;42.656;23.312;2022-09-13T00:07:50;94390.41;;;13.38;92.83
7170;BME280;3626;42.656;23.312;2022-09-13T00:07:56;94389.41;;;13.39;93.13
7170;BME280;3626;42.656;23.312;2022-09-13T00:08:02;94389.59;;;13.38;93.17
7170;BME280;3626;42.656;23.312;2022-09-13T00:08:08;94381.66;;;13.39;93.24
7170;BME280;3626;42.656;23.312;2022-09-13T00:08:15;94388.63;;;13.39;93.04
7170;BME280;3626;42.656;23.312;2022-09-13T00:08:21;94392.81;;;13.40;92.83
7170;BME280;3626;42.656;23.312;2022-09-13T00:08:27;94388.63;;;13.39;92.70
7170;BME280;3626;42.656;23.312;2022-09-13T00:08:32;94390.22;;;13.40;92.97
7170;BME280;3626;42.656;23.312;2022-09-13T00:08:39;94391.22;;;13.39;93.17
7170;BME280;3626;42.656;23.312;2022-09-13T00:08:45;94386.81;;;13.39;92.99
7170;BME280;3626;42.656;23.312;2022-09-13T00:08:52;94382.63;;;13.38;92.94
7170;BME280;3626;42.656;23.312;2022-09-13T00:08:59;94386.03;;;13.39;92.97
7170;BME280;3626;42.656;23.312;2022-09-13T00:09:05;94387.00;;;13.38;93.13
7170;BME280;3626;42.656;23.312;2022-09-13T00:09:11;94388.78;;;13.37;92.95
7170;BME280;3626;42.656;23.312;2022-09-13T00:09:17;94386.19;;;13.37;92.95
7170;BME280;3626;42.656;23.312;2022-09-13T00:09:23;94383.44;;;13.39;93.14
7170;BME280;3626;42.656;23.312;2022-09-13T00:09:28;94385.03;;;13.40;93.21
7170;BME280;3626;42.656;23.312;2022-09-13T00:09:34;94384.22;;;13.39;93.25
7170;BME280;3626;42.656;23.312;2022-09-13T00:09:41;94381.44;;;13.41;93.44
7170;BME280;3626;42.656;23.312;2022-09-13T00:09:47;94390.00;;;13.41;93.10
7170;BME280;3626;42.656;23.312;2022-09-13T00:09:53;94387.44;;;13.41;92.88
7170;BME280;3626;42.656;23.312;2022-09-13T00:09:58;94385.63;;;13.42;92.80
7170;BME280;3626;42.656;23.312;2022-09-13T00:10:05;94390.81;;;13.42;92.92
7170;BME280;3626;42.656;23.312;2022-09-13T00:10:10;94387.44;;;13.41;92.95
7170;BME280;3626;42.656;23.312;2022-09-13T00:10:16;94389.22;;;13.41;93.04
7170;BME280;3626;42.656;23.312;2022-09-13T00:10:23;94386.63;;;13.41;93.06
7170;BME280;3626;42.656;23.312;2022-09-13T00:10:28;94381.44;;;13.41;92.76
7170;BME280;3626;42.656;23.312;2022-09-13T00:10:36;94384.84;;;13.41;93.06
7170;BME280;3626;42.656;23.312;2022-09-13T00:10:43;94393.41;;;13.42;93.21
7170;BME280;3626;42.656;23.312;2022-09-13T00:10:49;94384.84;;;13.41;92.84
7170;BME280;3626;42.656;23.312;2022-09-13T00:10:55;94390.00;;;13.41;92.89
7170;BME280;3626;42.656;23.312;2022-09-13T00:11:01;94386.47;;;13.42;92.95
7170;BME280;3626;42.656;23.312;2022-09-13T00:11:07;94386.47;;;13.42;92.89
7170;BME280;3626;42.656;23.312;2022-09-13T00:11:20;94389.06;;;13.42;92.69
7170;BME280;3626;42.656;23.312;2022-09-13T00:11:28;94385.47;;;13.43;92.69
7170;BME280;3626;42.656;23.312;2022-09-13T00:11:34;94388.06;;;13.43;92.82
7170;BME280;3626;42.656;23.312;2022-09-13T00:11:40;94382.88;;;13.43;92.93
7170;BME280;3626;42.656;23.312;2022-09-13T00:11:46;94389.66;;;13.44;93.04
7170;BME280;3626;42.656;23.312;2022-09-13T00:11:52;94384.47;;;13.44;93.00
7170;BME280;3626;42.656;23.312;2022-09-13T00:11:58;94384.25;;;13.46;92.77
7170;BME280;3626;42.656;23.312;2022-09-13T00:12:04;94379.06;;;13.46;92.80
7170;BME280;3626;42.656;23.312;2022-09-13T00:12:10;94389.28;;;13.47;92.89
7170;BME280;3626;42.656;23.312;2022-09-13T00:12:15;94387.66;;;13.46;92.62
7170;BME280;3626;42.656;23.312;2022-09-13T00:12:21;94385.06;;;13.46;92.66
7170;BME280;3626;42.656;23.312;2022-09-13T00:12:27;94387.66;;;13.46;92.71
7170;BME280;3626;42.656;23.312;2022-09-13T00:12:33;94387.66;;;13.46;92.80
7170;BME280;3626;42.656;23.312;2022-09-13T00:12:38;94387.66;;;13.46;92.63
7170;BME280;3626;42.656;23.312;2022-09-13T00:12:44;94382.28;;;13.48;92.64
7170;BME280;3626;42.656;23.312;2022-09-13T00:12:52;94383.88;;;13.49;92.48
7170;BME280;3626;42.656;23.312;2022-09-13T00:12:58;94385.47;;;13.50;92.64
7170;BME280;3626;42.656;23.312;2022-09-13T00:13:04;94382.72;;;13.52;92.75
7170;BME280;3626;42.656;23.312;2022-09-13T00:13:14;94387.72;;;13.53;92.34
7170;BME280;3626;42.656;23.312;2022-09-13T00:13:20;94389.31;;;13.54;92.30
7170;BME280;3626;42.656;23.312;2022-09-13T00:13:25;94388.34;;;13.55;92.32
7170;BME280;3626;42.656;23.312;2022-09-13T00:13:31;94379.72;;;13.55;92.43
7170;BME280;3626;42.656;23.312;2022-09-13T00:13:37;94390.09;;;13.55;92.47
7170;BME280;3626;42.656;23.312;2022-09-13T00:13:43;94384.13;;;13.54;92.17
7170;BME280;3626;42.656;23.312;2022-09-13T00:13:49;94384.13;;;13.54;92.05
7170;BME280;3626;42.656;23.312;2022-09-13T00:13:55;94379.94;;;13.53;92.11
7170;BME280;3626;42.656;23.312;2022-09-13T00:14:01;94385.91;;;13.54;92.29
7170;BME280;3626;42.656;23.312;2022-09-13T00:14:07;94380.72;;;13.54;92.05
7170;BME280;3626;42.656;23.312;2022-09-13T00:14:13;94379.72;;;13.55;91.89
7170;BME280;3626;42.656;23.312;2022-09-13T00:14:20;94383.31;;;13.54;92.01
7170;BME280;3626;42.656;23.312;2022-09-13T00:14:25;94383.31;;;13.54;92.04
7170;BME280;3626;42.656;23.312;2022-09-13T00:14:31;94383.16;;;13.55;92.00
7170;BME280;3626;42.656;23.312;2022-09-13T00:14:37;94384.91;;;13.55;92.20
7170;BME280;3626;42.656;23.312;2022-09-13T00:14:42;94380.56;;;13.55;92.25
7170;BME280;3626;42.656;23.312;2022-09-13T00:14:48;94381.34;;;13.56;92.04
7170;BME280;3626;42.656;23.312;2022-09-13T00:14:54;94376.97;;;13.56;91.93
7170;BME280;3626;42.656;23.312;2022-09-13T00:15:00;94373.56;;;13.56;92.16
7170;BME280;3626;42.656;23.312;2022-09-13T00:15:06;94378.56;;;13.57;92.04
7170;BME280;3626;42.656;23.312;2022-09-13T00:15:13;94377.56;;;13.58;92.08
7170;BME280;3626;42.656;23.312;2022-09-13T00:15:19;94381.75;;;13.59;91.74
7170;BME280;3626;42.656;23.312;2022-09-13T00:15:24;94375.75;;;13.59;92.00
7170;BME280;3626;42.656;23.312;2022-09-13T00:15:31;94380.94;;;13.59;91.90
7170;BME280;3626;42.656;23.312;2022-09-13T00:15:41;94383.38;;;13.60;91.88
7170;BME280;3626;42.656;23.312;2022-09-13T00:15:49;94374.78;;;13.60;91.92
7170;BME280;3626;42.656;23.312;2022-09-13T00:15:54;94383.38;;;13.60;91.81
7170;BME280;3626;42.656;23.312;2022-09-13T00:16:01;94378.00;;;13.62;91.88
7170;BME280;3626;42.656;23.312;2022-09-13T00:16:11;94378.63;;;13.64;91.87
7170;BME280;3626;42.656;23.312;2022-09-13T00:16:18;94380.22;;;13.65;91.75
7170;BME280;3626;42.656;23.312;2022-09-13T00:16:26;94381.00;;;13.65;91.75
7170;BME280;3626;42.656;23.312;2022-09-13T00:16:32;94379.22;;;13.66;91.58
7170;BME280;3626;42.656;23.312;2022-09-13T00:16:38;94379.00;;;13.67;91.69
7170;BME280;3626;42.656;23.312;2022-09-13T00:16:43;94382.59;;;13.66;91.87
7170;BME280;3626;42.656;23.312;2022-09-13T00:16:49;94374.66;;;13.68;91.97
7170;BME280;3626;42.656;23.312;2022-09-13T00:16:55;94378.03;;;13.68;92.02
7170;BME280;3626;42.656;23.312;2022-09-13T00:17:02;94381.22;;;13.70;91.58
7170;BME280;3626;42.656;23.312;2022-09-13T00:17:08;94383.63;;;13.72;91.34
7170;BME280;3626;42.656;23.312;2022-09-13T00:17:13;94377.63;;;13.71;91.24
7170;BME280;3626;42.656;23.312;2022-09-13T00:17:19;94374.06;;;13.72;91.50
7170;BME280;3626;42.656;23.312;2022-09-13T00:17:26;94378.25;;;13.73;91.46
7170;BME280;3626;42.656;23.312;2022-09-13T00:17:31;94377.47;;;13.73;91.23
7170;BME280;3626;42.656;23.312;2022-09-13T00:17:37;94382.66;;;13.73;91.05
7170;BME280;3626;42.656;23.312;2022-09-13T00:17:44;94375.84;;;13.72;91.01
7170;BME280;3626;42.656;23.312;2022-09-13T00:17:49;94375.03;;;13.71;91.20
7170;BME280;3626;42.656;23.312;2022-09-13T00:17:55;94374.25;;;13.71;91.12
7170;BME280;3626;42.656;23.312;2022-09-13T00:18:01;94374.25;;;13.71;91.20
7170;BME280;3626;42.656;23.312;2022-09-13T00:18:07;94377.84;;;13.70;90.99
7170;BME280;3626;42.656;23.312;2022-09-13T00:18:13;94375.25;;;13.70;91.11
7170;BME280;3626;42.656;23.312;2022-09-13T00:18:19;94375.25;;;13.70;91.14
7170;BME280;3626;42.656;23.312;2022-09-13T00:18:25;94378.03;;;13.68;91.04
7170;BME280;3626;42.656;23.312;2022-09-13T00:18:30;94377.03;;;13.69;91.03
7170;BME280;3626;42.656;23.312;2022-09-13T00:18:36;94376.03;;;13.70;91.04
7170;BME280;3626;42.656;23.312;2022-09-13T00:18:43;94379.44;;;13.71;91.39
7170;BME280;3626;42.656;23.312;2022-09-13T00:18:49;94382.03;;;13.71;91.09
7170;BME280;3626;42.656;23.312;2022-09-13T00:18:55;94375.84;;;13.72;91.18
7170;BME280;3626;42.656;23.312;2022-09-13T00:19:01;94382.81;;;13.71;91.11
7170;BME280;3626;42.656;23.312;2022-09-13T00:19:06;94375.84;;;13.72;91.11
7170;BME280;3626;42.656;23.312;2022-09-13T00:19:12;94378.25;;;13.73;91.14
7170;BME280;3626;42.656;23.312;2022-09-13T00:19:18;94373.06;;;13.73;91.37
7170;BME280;3626;42.656;23.312;2022-09-13T00:19:24;94373.06;;;13.73;91.37
7170;BME280;3626;42.656;23.312;2022-09-13T00:19:29;94376.47;;;13.74;91.25
7170;BME280;3626;42.656;23.312;2022-09-13T00:19:35;94367.69;;;13.75;91.12
7170;BME280;3626;42.656;23.312;2022-09-13T00:19:41;94379.66;;;13.76;91.13
7170;BME280;3626;42.656;23.312;2022-09-13T00:19:46;94375.47;;;13.75;91.17
7170;BME280;3626;42.656;23.312;2022-09-13T00:19:52;94371.88;;;13.76;90.78
7170;BME280;3626;42.656;23.312;2022-09-13T00:19:58;94368.69;;;13.74;90.90
7170;BME280;3626;42.656;23.312;2022-09-13T00:20:04;94374.66;;;13.74;91.03
7170;BME280;3626;42.656;23.312;2022-09-13T00:20:10;94371.28;;;13.74;90.73
7170;BME280;3626;42.656;23.312;2022-09-13T00:20:16;94371.28;;;13.74;90.71
7170;BME280;3626;42.656;23.312;2022-09-13T00:20:23;94370.47;;;13.73;90.66
7170;BME280;3626;42.656;23.312;2022-09-13T00:20:28;94366.28;;;13.72;90.80
7170;BME280;3626;42.656;23.312;2022-09-13T00:20:34;94372.44;;;13.71;91.09
7170;BME280;3626;42.656;23.312;2022-09-13T00:20:40;94370.66;;;13.72;90.94
7170;BME280;3626;42.656;23.312;2022-09-13T00:20:46;94370.66;;;13.72;90.95
7170;BME280;3626;42.656;23.312;2022-09-13T00:20:51;94365.47;;;13.72;91.01
7170;BME280;3626;42.656;23.312;2022-09-13T00:21:09;94378.25;;;13.73;91.07
7170;BME280;3626;42.656;23.312;2022-09-13T00:21:17;94374.88;;;13.73;91.26
7170;BME280;3626;42.656;23.312;2022-09-13T00:21:23;94367.88;;;13.73;91.02
7170;BME280;3626;42.656;23.312;2022-09-13T00:21:29;94367.88;;;13.73;91.29
7170;BME280;3626;42.656;23.312;2022-09-13T00:21:35;94372.28;;;13.73;91.20
7170;BME280;3626;42.656;23.312;2022-09-13T00:21:41;94370.66;;;13.72;91.13
7170;BME280;3626;42.656;23.312;2022-09-13T00:21:47;94368.06;;;13.72;90.97
7170;BME280;3626;42.656;23.312;2022-09-13T00:21:52;94371.28;;;13.74;91.22
7170;BME280;3626;42.656;23.312;2022-09-13T00:21:58;94366.28;;;13.72;91.08
7170;BME280;3626;42.656;23.312;2022-09-13T00:22:04;94373.06;;;13.73;91.11
7170;BME280;3626;42.656;23.312;2022-09-13T00:22:10;94371.28;;;13.74;91.32
7170;BME280;3626;42.656;23.312;2022-09-13T00:22:16;94374.66;;;13.74;91.03
7170;BME280;3626;42.656;23.312;2022-09-13T00:22:22;94370.28;;;13.75;91.03
7170;BME280;3626;42.656;23.312;2022-09-13T00:22:27;94373.88;;;13.74;91.22
7170;BME280;3626;42.656;23.312;2022-09-13T00:22:33;94374.66;;;13.74;91.19
7170;BME280;3626;42.656;23.312;2022-09-13T00:22:39;94375.47;;;13.75;91.15
7170;BME280;3626;42.656;23.312;2022-09-13T00:22:45;94367.69;;;13.75;91.02
7170;BME280;3626;42.656;23.312;2022-09-13T00:22:50;94367.69;;;13.75;90.96
7170;BME280;3626;42.656;23.312;2022-09-13T00:22:56;94364.28;;;13.74;91.03
7170;BME280;3626;42.656;23.312;2022-09-13T00:23:02;94369.47;;;13.74;90.86
7170;BME280;3626;42.656;23.312;2022-09-13T00:23:08;94370.47;;;13.73;90.94
7170;BME280;3626;42.656;23.312;2022-09-13T00:23:13;94367.09;;;13.73;90.85
7170;BME280;3626;42.656;23.312;2022-09-13T00:23:20;94364.50;;;13.73;91.16
7170;BME280;3626;42.656;23.312;2022-09-13T00:23:26;94367.88;;;13.73;90.94
7170;BME280;3626;42.656;23.312;2022-09-13T00:23:31;94371.28;;;13.74;90.94
7170;BME280;3626;42.656;23.312;2022-09-13T00:23:38;94370.47;;;13.73;91.06
7170;BME280;3626;42.656;23.312;2022-09-13T00:23:46;94367.88;;;13.73;91.16
7170;BME280;3626;42.656;23.312;2022-09-13T00:23:53;94366.88;;;13.74;91.24
7170;BME280;3626;42.656;23.312;2022-09-13T00:23:59;94374.66;;;13.74;91.12
7170;BME280;3626;42.656;23.312;2022-09-13T00:24:05;94367.69;;;13.75;91.04
7170;BME280;3626;42.656;23.312;2022-09-13T00:24:10;94369.47;;;13.74;91.14
7170;BME280;3626;42.656;23.312;2022-09-13T00:24:16;94367.69;;;13.75;91.17
7170;BME280;3626;42.656;23.312;2022-09-13T00:24:22;94364.91;;;13.77;91.09
7170;BME280;3626;42.656;23.312;2022-09-13T00:24:27;94369.28;;;13.76;91.10
7170;BME280;3626;42.656;23.312;2022-09-13T00:24:33;94369.09;;;13.78;91.11
7170;BME280;3626;42.656;23.312;2022-09-13T00:24:39;94376.69;;;13.79;91.26
7170;BME280;3626;42.656;23.312;2022-09-13T00:24:45;94368.09;;;13.79;90.97
7170;BME280;3626;42.656;23.312;2022-09-13T00:24:51;94363.91;;;13.78;90.94
7170;BME280;3626;42.656;23.312;2022-09-13T00:24:57;94366.50;;;13.78;91.00
7170;BME280;3626;42.656;23.312;2022-09-13T00:25:03;94369.09;;;13.78;90.85
7170;BME280;3626;42.656;23.312;2022-09-13T00:25:10;94363.91;;;13.78;90.92
7170;BME280;3626;42.656;23.312;2022-09-13T00:25:16;94364.72;;;13.78;91.19
7170;BME280;3626;42.656;23.312;2022-09-13T00:25:22;94362.72;;;13.80;91.08
7170;BME280;3626;42.656;23.312;2022-09-13T00:25:28;94362.72;;;13.80;90.84
7170;BME280;3626;42.656;23.312;2022-09-13T00:25:33;94364.34;;;13.81;90.89
7170;BME280;3626;42.656;23.312;2022-09-13T00:25:39;94368.53;;;13.82;90.91
7170;BME280;3626;42.656;23.312;2022-09-13T00:25:45;94366.94;;;13.81;91.07
7170;BME280;3626;42.656;23.312;2022-09-13T00:25:51;94362.91;;;13.79;90.92
7170;BME280;3626;42.656;23.312;2022-09-13T00:26:03;94365.72;;;13.77;90.92
7170;BME280;3626;42.656;23.312;2022-09-13T00:26:11;94363.13;;;13.77;90.78
7170;BME280;3626;42.656;23.312;2022-09-13T00:26:19;94359.91;;;13.75;91.05
7170;BME280;3626;42.656;23.312;2022-09-13T00:26:27;94357.31;;;13.75;90.73
7170;BME280;3626;42.656;23.312;2022-09-13T00:26:33;94359.91;;;13.75;90.90
7170;BME280;3626;42.656;23.312;2022-09-13T00:26:39;94361.50;;;13.76;90.90
7170;BME280;3626;42.656;23.312;2022-09-13T00:26:44;94367.31;;;13.78;90.87
7170;BME280;3626;42.656;23.312;2022-09-13T00:26:50;94360.53;;;13.77;90.79
7170;BME280;3626;42.656;23.312;2022-09-13T00:26:56;94361.31;;;13.78;91.07
7170;BME280;3626;42.656;23.312;2022-09-13T00:27:02;94359.53;;;13.78;90.66
7170;BME280;3626;42.656;23.312;2022-09-13T00:27:07;94359.72;;;13.77;90.67
7170;BME280;3626;42.656;23.312;2022-09-13T00:27:13;94363.28;;;13.75;90.62
7170;BME280;3626;42.656;23.312;2022-09-13T00:27:19;94362.31;;;13.77;90.97
7170;BME280;3626;42.656;23.312;2022-09-13T00:27:25;94367.31;;;13.78;90.96
7170;BME280;3626;42.656;23.312;2022-09-13T00:27:31;94362.13;;;13.78;90.53
7170;BME280;3626;42.656;23.312;2022-09-13T00:27:37;94363.72;;;13.79;90.61
7170;BME280;3626;42.656;23.312;2022-09-13T00:27:42;94362.72;;;13.80;90.60
7170;BME280;3626;42.656;23.312;2022-09-13T00:27:49;94367.91;;;13.80;90.71
7170;BME280;3626;42.656;23.312;2022-09-13T00:27:54;94363.72;;;13.79;90.58
7170;BME280;3626;42.656;23.312;2022-09-13T00:28:01;94367.91;;;13.80;90.89
7170;BME280;3626;42.656;23.312;2022-09-13T00:28:07;94363.34;;;13.82;90.57
7170;BME280;3626;42.656;23.312;2022-09-13T00:28:13;94364.13;;;13.83;90.83
7170;BME280;3626;42.656;23.312;2022-09-13T00:28:19;94363.94;;;13.84;90.65
7170;BME280;3626;42.656;23.312;2022-09-13T00:28:24;94367.31;;;13.85;90.80
7170;BME280;3626;42.656;23.312;2022-09-13T00:28:30;94367.94;;;13.87;90.48
7170;BME280;3626;42.656;23.312;2022-09-13T00:28:36;94372.34;;;13.86;90.47
7170;BME280;3626;42.656;23.312;2022-09-13T00:28:43;94367.94;;;13.87;90.48
7170;BME280;3626;42.656;23.312;2022-09-13T00:28:50;94360.16;;;13.87;90.40
7170;BME280;3626;42.656;23.312;2022-09-13T00:28:57;94363.56;;;13.87;90.32
7170;BME280;3626;42.656;23.312;2022-09-13T00:29:03;94366.16;;;13.87;90.23
7170;BME280;3626;42.656;23.312;2022-09-13T00:29:10;94360.16;;;13.87;90.21
7170;BME280;3626;42.656;23.312;2022-09-13T00:29:15;94367.16;;;13.86;90.33
7170;BME280;3626;42.656;23.312;2022-09-13T00:29:21;94368.94;;;13.86;90.26
7170;BME280;3626;42.656;23.312;2022-09-13T00:29:27;94365.56;;;13.85;90.44
7170;BME280;3626;42.656;23.312;2022-09-13T00:29:33;94361.16;;;13.86;90.30
7170;BME280;3626;42.656;23.312;2022-09-13T00:29:38;94367.16;;;13.86;90.20
7170;BME280;3626;42.656;23.312;2022-09-13T00:29:44;94360.38;;;13.85;90.82
7170;BME280;3626;42.656;23.312;2022-09-13T00:29:50;94368.16;;;13.85;90.61
7170;BME280;3626;42.656;23.312;2022-09-13T00:29:56;94366.53;;;13.84;90.36
7170;BME280;3626;42.656;23.312;2022-09-13T00:30:03;94363.94;;;13.84;90.44
7170;BME280;3626;42.656;23.312;2022-09-13T00:30:10;94367.53;;;13.83;90.54
7170;BME280;3626;42.656;23.312;2022-09-13T00:30:16;94367.53;;;13.83;90.61
7170;BME280;3626;42.656;23.312;2022-09-13T00:30:22;94364.94;;;13.83;90.18
7170;BME280;3626;42.656;23.312;2022-09-13T00:30:28;94369.13;;;13.84;90.61
7170;BME280;3626;42.656;23.312;2022-09-13T00:30:33;94364.94;;;13.83;90.61
7170;BME280;3626;42.656;23.312;2022-09-13T00:30:40;94367.31;;;13.85;90.65
7170;BME280;3626;42.656;23.312;2022-09-13T00:30:46;94363.94;;;13.84;90.63
7170;BME280;3626;42.656;23.312;2022-09-13T00:30:51;94367.16;;;13.86;90.59
7170;BME280;3626;42.656;23.312;2022-09-13T00:30:59;94363.75;;;13.86;90.60
7170;BME280;3626;42.656;23.312;2022-09-13T00:31:06;94370.34;;;13.88;90.42
7170;BME280;3626;42.656;23.312;2022-09-13T00:31:12;94363.34;;;13.89;90.55
7170;BME280;3626;42.656;23.312;2022-09-13T00:31:19;94366.78;;;13.89;90.52
7170;BME280;3626;42.656;23.312;2022-09-13T00:31:27;94366.78;;;13.89;90.16
7170;BME280;3626;42.656;23.312;2022-09-13T00:31:32;94365.78;;;13.90;90.46
7170;BME280;3626;42.656;23.312;2022-09-13T00:31:38;94367.38;;;13.91;90.44
7170;BME280;3626;42.656;23.312;2022-09-13T00:31:44;94364.78;;;13.91;90.42
7170;BME280;3626;42.656;23.312;2022-09-13T00:31:51;94367.38;;;13.91;90.13
7170;BME280;3626;42.656;23.312;2022-09-13T00:31:56;94364.78;;;13.91;90.44
7170;BME280;3626;42.656;23.312;2022-09-13T00:32:04;94371.56;;;13.92;89.94
7170;BME280;3626;42.656;23.312;2022-09-13T00:32:09;94368.97;;;13.92;90.35
7170;BME280;3626;42.656;23.312;2022-09-13T00:32:15;94364.56;;;13.93;90.20
7170;BME280;3626;42.656;23.312;2022-09-13T00:32:21;94362.19;;;13.91;90.13
7170;BME280;3626;42.656;23.312;2022-09-13T00:32:27;94365.41;;;13.93;90.02
7170;BME280;3626;42.656;23.312;2022-09-13T00:32:33;94368.97;;;13.92;89.93
7170;BME280;3626;42.656;23.312;2022-09-13T00:32:39;94369.97;;;13.91;90.22
7170;BME280;3626;42.656;23.312;2022-09-13T00:32:45;94369.16;;;13.91;89.86
7170;BME280;3626;42.656;23.312;2022-09-13T00:32:51;94363.97;;;13.91;89.83
7170;BME280;3626;42.656;23.312;2022-09-13T00:32:56;94362.38;;;13.90;90.09
7170;BME280;3626;42.656;23.312;2022-09-13T00:33:02;94360.38;;;13.92;90.07
7170;BME280;3626;42.656;23.312;2022-09-13T00:33:08;94365.56;;;13.92;90.22
7170;BME280;3626;42.656;23.312;2022-09-13T00:33:14;94364.56;;;13.93;90.02